Time;durP1;ratioP1;P1;durP2;ratioP2;P2;SDS_P1;SDS_P2;PMS_P1;PMS_P2;Temp;Humidity;BMP_temperature;BMP_pressure;BME280_temperature;BME280_humidity;BME280_pressure;Samples;Min_cycle;Max_cycle;Signal;HPM_P1;HPM_P2
2021/11/03 00:00:51;;;;;;;;;13.50;13.00;;;;;-144.76;100.00;60493.00;5045305;28;46402;-92
2021/11/03 00:03:16;;;;;;;;;11.75;11.75;;;;;-144.76;100.00;60493.00;5059036;28;45515;-92
2021/11/03 00:05:45;;;;;;;;;14.25;10.50;;;;;-144.76;100.00;60493.00;5045001;28;45463;-85
2021/11/03 00:08:17;;;;;;;;;12.25;12.00;;;;;-144.76;100.00;60493.00;5029309;28;45457;-91
2021/11/03 00:10:45;;;;;;;;;16.25;13.50;;;;;-144.76;100.00;60493.00;5027155;28;48252;-91
2021/11/03 00:13:13;;;;;;;;;13.50;12.50;;;;;-144.76;100.00;60493.00;5044382;28;45375;-91
2021/11/03 00:15:38;;;;;;;;;15.00;14.00;;;;;-144.76;100.00;60493.00;5029280;28;45389;-93
2021/11/03 00:18:04;;;;;;;;;12.00;11.00;;;;;-144.76;100.00;60493.00;5045462;28;45260;-90
2021/11/03 00:20:30;;;;;;;;;10.25;10.25;;;;;-144.76;100.00;60493.00;5043613;28;46486;-92
2021/11/03 00:22:57;;;;;;;;;13.50;12.50;;;;;-144.76;100.00;60493.00;5029056;28;45910;-92
2021/11/03 00:25:22;;;;;;;;;12.00;12.00;;;;;-144.76;100.00;60493.00;5027283;28;45485;-91
2021/11/03 00:27:48;;;;;;;;;11.50;10.50;;;;;-144.76;100.00;60493.00;5045569;28;45788;-91
2021/11/03 00:30:13;;;;;;;;;12.25;12.00;;;;;-144.76;100.00;60493.00;5046779;28;45565;-93
2021/11/03 00:32:38;;;;;;;;;11.75;11.75;;;;;-144.76;100.00;60493.00;5026441;28;45722;-91
2021/11/03 00:35:04;;;;;;;;;14.75;13.75;;;;;-144.76;100.00;60493.00;5046248;28;45660;-90
2021/11/03 00:37:29;;;;;;;;;14.25;13.00;;;;;-144.76;100.00;60493.00;5045703;28;45390;-92
2021/11/03 00:39:55;;;;;;;;;12.50;11.75;;;;;-144.76;100.00;60493.00;5043117;28;46961;-93
2021/11/03 00:42:20;;;;;;;;;10.75;10.75;;;;;-144.76;100.00;60493.00;5044688;28;45450;-94
2021/11/03 00:44:45;;;;;;;;;13.25;12.75;;;;;-144.76;100.00;60493.00;5046030;28;45421;-91
2021/11/03 00:47:11;;;;;;;;;16.25;13.25;;;;;-144.76;100.00;60493.00;5045766;28;45405;-91
2021/11/03 00:49:36;;;;;;;;;12.75;11.25;;;;;-144.76;100.00;60493.00;5025669;28;48263;-93
2021/11/03 00:52:02;;;;;;;;;13.50;12.25;;;;;-144.76;100.00;60493.00;5042649;28;45444;-93
2021/11/03 00:54:27;;;;;;;;;17.25;16.00;;;;;-144.76;100.00;60493.00;5025983;28;45266;-91
2021/11/03 00:56:53;;;;;;;;;16.50;13.50;;;;;-144.76;100.00;60493.00;5029877;28;45307;-93
2021/11/03 00:59:18;;;;;;;;;14.50;13.00;;;;;-144.76;100.00;60493.00;5044245;28;47727;-92
2021/11/03 01:01:43;;;;;;;;;15.25;15.00;;;;;-144.76;100.00;60493.00;5044518;28;45359;-91
2021/11/03 01:04:09;;;;;;;;;17.00;16.25;;;;;-144.76;100.00;60493.00;5045437;28;45518;-90
2021/11/03 01:06:34;;;;;;;;;13.00;13.00;;;;;-144.76;100.00;60493.00;5019762;28;45299;-91
2021/11/03 01:09:00;;;;;;;;;12.50;12.50;;;;;-144.76;100.00;60493.00;5032712;28;46323;-84
2021/11/03 01:11:26;;;;;;;;;13.50;13.50;;;;;-144.76;100.00;60493.00;5031777;28;45653;-91
2021/11/03 01:13:51;;;;;;;;;16.00;14.25;;;;;-144.76;100.00;60493.00;5031852;28;45522;-86
2021/11/03 01:16:17;;;;;;;;;13.25;12.00;;;;;-144.76;100.00;60493.00;5052484;28;45606;-86
2021/11/03 01:18:42;;;;;;;;;12.75;12.50;;;;;-144.76;100.00;60493.00;5052192;28;47074;-86
2021/11/03 01:21:08;;;;;;;;;12.25;12.25;;;;;-144.76;100.00;60493.00;5052699;28;46095;-88
2021/11/03 01:23:33;;;;;;;;;11.00;9.00;;;;;-144.76;100.00;60493.00;5053956;28;45722;-85
2021/11/03 01:25:59;;;;;;;;;14.00;13.50;;;;;-144.76;100.00;60493.00;5049846;28;45522;-89
2021/11/03 01:28:25;;;;;;;;;13.50;12.50;;;;;-144.76;100.00;60493.00;5028549;28;47330;-87
2021/11/03 01:30:51;;;;;;;;;12.50;11.75;;;;;-144.76;100.00;60493.00;5046490;28;45899;-87
2021/11/03 01:33:20;;;;;;;;;11.75;10.00;;;;;-144.76;100.00;60493.00;5039542;28;45606;-84
2021/11/03 01:35:46;;;;;;;;;10.00;8.75;;;;;-144.76;100.00;60493.00;5049896;28;45342;-84
2021/11/03 01:38:11;;;;;;;;;8.00;7.75;;;;;-144.76;100.00;60493.00;5055251;28;45549;-86
2021/11/03 01:40:39;;;;;;;;;10.75;9.75;;;;;-144.76;100.00;60493.00;5045168;28;45619;-85
2021/11/03 01:43:07;;;;;;;;;7.25;6.00;;;;;-144.76;100.00;60493.00;5017929;28;45618;-85
2021/11/03 01:45:34;;;;;;;;;6.00;6.00;;;;;-144.76;100.00;60493.00;5017929;28;45291;-85
2021/11/03 01:48:09;;;;;;;;;4.25;4.25;;;;;-144.76;100.00;60493.00;5018011;28;46362;-85
2021/11/03 01:50:48;;;;;;;;;7.75;5.00;;;;;-144.76;100.00;60493.00;5031864;28;46036;-85
2021/11/03 01:53:21;;;;;;;;;5.75;5.75;;;;;-144.76;100.00;60493.00;5035670;28;45508;-85
2021/11/03 01:55:55;;;;;;;;;5.00;5.00;;;;;-144.76;100.00;60493.00;5034880;28;45647;-89
2021/11/03 01:58:28;;;;;;;;;3.00;3.00;;;;;-144.76;100.00;60493.00;5035330;28;47555;-88
2021/11/03 02:00:56;;;;;;;;;3.00;3.00;;;;;-144.76;100.00;60493.00;5039861;28;45417;-85
2021/11/03 02:03:27;;;;;;;;;3.00;3.00;;;;;-144.76;100.00;60493.00;5025415;28;45989;-85
2021/11/03 02:05:58;;;;;;;;;3.50;3.00;;;;;-144.76;100.00;60493.00;5043742;28;45363;-86
2021/11/03 02:08:25;;;;;;;;;2.25;2.25;;;;;-144.76;100.00;60493.00;5027938;28;47414;-86
2021/11/03 02:10:50;;;;;;;;;3.25;3.25;;;;;-144.76;100.00;60493.00;5045925;28;45427;-85
2021/11/03 02:13:16;;;;;;;;;3.75;3.00;;;;;-144.76;100.00;60493.00;5027210;28;45476;-84
2021/11/03 02:15:42;;;;;;;;;4.00;4.00;;;;;-144.76;100.00;60493.00;5044612;28;45541;-85
2021/11/03 02:18:12;;;;;;;;;2.00;2.00;;;;;-144.76;100.00;60493.00;5042973;28;49026;-86
2021/11/03 02:20:40;;;;;;;;;4.75;4.75;;;;;-144.76;100.00;60493.00;5045064;28;45534;-84
2021/11/03 02:23:27;;;;;;;;;4.00;4.00;;;;;-144.76;100.00;60493.00;5046880;28;45548;-91
2021/11/03 02:26:02;;;;;;;;;5.25;4.50;;;;;-144.76;100.00;60493.00;5044099;28;45200;-88
2021/11/03 02:28:30;;;;;;;;;4.00;4.00;;;;;-144.76;100.00;60493.00;5042993;28;47516;-87
2021/11/03 02:30:55;;;;;;;;;4.75;3.25;;;;;-144.76;100.00;60493.00;5045928;28;46160;-86
2021/11/03 02:33:23;;;;;;;;;4.25;3.00;;;;;-144.76;100.00;60493.00;5042696;28;45475;-84
2021/11/03 02:35:57;;;;;;;;;3.00;3.00;;;;;-144.76;100.00;60493.00;5044162;28;45309;-90
2021/11/03 02:38:36;;;;;;;;;5.25;4.50;;;;;-144.76;100.00;60493.00;5025758;28;47153;-85
2021/11/03 02:41:08;;;;;;;;;2.75;2.75;;;;;-144.76;100.00;60493.00;5046231;28;45979;-92
2021/11/03 02:43:40;;;;;;;;;3.25;3.25;;;;;-144.76;100.00;60493.00;5043912;28;45646;-87
2021/11/03 02:46:07;;;;;;;;;5.25;4.00;;;;;-144.76;100.00;60493.00;5047618;28;45555;-90
2021/11/03 02:48:35;;;;;;;;;3.25;3.25;;;;;-144.76;100.00;60493.00;5056308;28;46090;-87
2021/11/03 02:51:13;;;;;;;;;4.50;3.50;;;;;-144.76;100.00;60493.00;5056414;28;45318;-86
2021/11/03 02:53:44;;;;;;;;;3.00;3.00;;;;;-144.76;100.00;60493.00;5056484;28;45519;-87
2021/11/03 02:56:10;;;;;;;;;2.75;2.75;;;;;-144.76;100.00;60493.00;5055223;28;45404;-92
2021/11/03 02:58:37;;;;;;;;;4.00;3.25;;;;;-144.76;100.00;60493.00;5038240;28;48571;-90
2021/11/03 03:01:20;;;;;;;;;3.00;3.00;;;;;-144.76;100.00;60493.00;5056181;28;45459;-86
2021/11/03 03:03:46;;;;;;;;;3.00;3.00;;;;;-144.76;100.00;60493.00;5038426;28;45483;-90
2021/11/03 03:06:21;;;;;;;;;2.75;2.75;;;;;-144.76;100.00;60493.00;5038134;28;45505;-85
2021/11/03 03:08:48;;;;;;;;;2.00;2.00;;;;;-144.76;100.00;60493.00;5055481;28;46676;-89
2021/11/03 03:11:15;;;;;;;;;3.75;3.00;;;;;-144.76;100.00;60493.00;5056283;28;45894;-90
2021/11/03 03:13:41;;;;;;;;;3.00;3.00;;;;;-144.76;100.00;60493.00;5054931;28;45493;-86
2021/11/03 03:16:07;;;;;;;;;2.00;2.00;;;;;-144.76;100.00;60493.00;5055098;28;45433;-86
2021/11/03 03:18:32;;;;;;;;;3.25;3.00;;;;;-144.76;100.00;60493.00;5056165;28;45639;-90
2021/11/03 03:20:58;;;;;;;;;6.75;5.75;;;;;-144.76;100.00;60493.00;5037945;28;45795;-86
2021/11/03 03:23:23;;;;;;;;;3.00;3.00;;;;;-144.76;100.00;60493.00;5054896;28;45545;-92
2021/11/03 03:25:50;;;;;;;;;2.00;2.00;;;;;-144.76;100.00;60493.00;5054866;28;45417;-87
2021/11/03 03:28:18;;;;;;;;;2.50;2.50;;;;;-144.76;100.00;60493.00;5055845;28;46363;-90
2021/11/03 03:30:43;;;;;;;;;3.25;3.25;;;;;-144.76;100.00;60493.00;5054687;28;45756;-86
2021/11/03 03:33:08;;;;;;;;;6.50;5.00;;;;;-144.76;100.00;60493.00;5054451;28;45325;-86
2021/11/03 03:35:34;;;;;;;;;3.00;3.00;;;;;-144.76;100.00;60493.00;5056140;28;45440;-89
2021/11/03 03:37:59;;;;;;;;;2.75;2.75;;;;;-144.76;100.00;60493.00;5054523;28;47456;-86
2021/11/03 03:40:25;;;;;;;;;5.00;4.25;;;;;-144.76;100.00;60493.00;5059828;28;45156;-89
2021/11/03 03:42:50;;;;;;;;;4.00;4.00;;;;;-144.76;100.00;60493.00;5059440;28;45280;-86
2021/11/03 03:45:16;;;;;;;;;4.00;3.75;;;;;-144.76;100.00;60493.00;5055077;28;45276;-92
2021/11/03 03:47:42;;;;;;;;;5.50;4.50;;;;;-144.76;100.00;60493.00;5037234;28;47615;-87
2021/11/03 03:50:09;;;;;;;;;3.00;3.00;;;;;-144.76;100.00;60493.00;5055585;28;45418;-91
2021/11/03 03:52:35;;;;;;;;;8.25;6.00;;;;;-144.76;100.00;60493.00;5055517;28;45610;-91
2021/11/03 03:55:00;;;;;;;;;4.75;4.25;;;;;-144.76;100.00;60493.00;5054462;28;45629;-86
2021/11/03 03:57:26;;;;;;;;;4.00;4.00;;;;;-144.76;100.00;60493.00;5037389;28;47940;-89
2021/11/03 03:59:51;;;;;;;;;4.75;4.75;;;;;-144.76;100.00;60493.00;5054257;28;45338;-88
2021/11/03 04:02:16;;;;;;;;;5.25;5.25;;;;;-144.76;100.00;60493.00;5053943;28;45527;-85
2021/11/03 04:04:42;;;;;;;;;6.25;6.25;;;;;-144.76;100.00;60493.00;5055641;28;45450;-89
2021/11/03 04:07:07;;;;;;;;;8.00;5.75;;;;;-144.76;100.00;60493.00;5055198;28;45674;-90
2021/11/03 04:09:32;;;;;;;;;8.75;8.00;;;;;-144.76;100.00;60493.00;5037306;28;45348;-86
2021/11/03 04:11:58;;;;;;;;;6.25;5.75;;;;;-144.76;100.00;60493.00;5054311;28;44724;-85
2021/11/03 04:14:23;;;;;;;;;4.75;4.25;;;;;-144.76;100.00;60493.00;5048705;28;45773;-88
2021/11/03 04:16:49;;;;;;;;;4.25;4.25;;;;;-144.76;100.00;60493.00;5041040;28;45568;-84
2021/11/03 04:19:14;;;;;;;;;5.75;5.75;;;;;-144.76;100.00;60493.00;5033696;28;45521;-85
2021/11/03 04:21:40;;;;;;;;;4.50;4.00;;;;;-144.76;100.00;60493.00;5015591;28;45377;-84
2021/11/03 04:24:05;;;;;;;;;4.00;4.00;;;;;-144.76;100.00;60493.00;5033507;28;45720;-86
2021/11/03 04:26:39;;;;;;;;;4.00;4.00;;;;;-144.76;100.00;60493.00;5015296;28;47955;-84
2021/11/03 04:29:05;;;;;;;;;4.25;4.25;;;;;-144.76;100.00;60493.00;5033959;28;45298;-84
2021/11/03 04:31:31;;;;;;;;;4.00;4.00;;;;;-144.76;100.00;60493.00;5033724;28;45368;-85
2021/11/03 04:33:56;;;;;;;;;4.75;4.75;;;;;-144.76;100.00;60493.00;5015829;28;45341;-84
2021/11/03 04:36:24;;;;;;;;;7.25;5.00;;;;;-144.76;100.00;60493.00;5033242;28;45517;-86
2021/11/03 04:38:51;;;;;;;;;4.75;4.50;;;;;-144.76;100.00;60493.00;5033196;28;45827;-89
2021/11/03 04:41:17;;;;;;;;;5.75;5.25;;;;;-144.76;100.00;60493.00;5033248;28;45573;-87
2021/11/03 04:43:45;;;;;;;;;5.25;4.75;;;;;-144.76;100.00;60493.00;5015419;28;45722;-90
2021/11/03 04:46:10;;;;;;;;;3.00;3.00;;;;;-144.76;100.00;60493.00;5033031;28;46163;-87
2021/11/03 04:48:36;;;;;;;;;3.00;3.00;;;;;-144.76;100.00;60493.00;5033194;28;45428;-90
2021/11/03 04:51:01;;;;;;;;;6.25;5.00;;;;;-144.76;100.00;60493.00;5015142;28;46037;-88
2021/11/03 04:53:28;;;;;;;;;8.75;7.75;;;;;-144.76;100.00;60493.00;5036313;28;45519;-91
2021/11/03 04:55:55;;;;;;;;;3.25;3.25;;;;;-144.76;100.00;60493.00;5036623;28;45584;-93
2021/11/03 04:58:21;;;;;;;;;3.25;3.25;;;;;-144.76;100.00;60493.00;5021033;28;45460;-92
2021/11/03 05:00:47;;;;;;;;;3.00;3.00;;;;;-144.76;100.00;60493.00;5022600;28;45532;-93
2021/11/03 05:03:13;;;;;;;;;4.00;3.25;;;;;-144.76;100.00;60493.00;5028003;28;45312;-93
2021/11/03 05:05:39;;;;;;;;;3.00;3.00;;;;;-144.76;100.00;60493.00;5024482;28;47129;-92
2021/11/03 05:08:04;;;;;;;;;4.00;4.00;;;;;-144.76;100.00;60493.00;5029146;28;45480;-90
2021/11/03 05:10:30;;;;;;;;;3.75;3.00;;;;;-144.76;100.00;60493.00;5046751;28;45550;-92
2021/11/03 05:12:55;;;;;;;;;3.25;3.25;;;;;-144.76;100.00;60493.00;5046240;28;45462;-91
2021/11/03 05:15:21;;;;;;;;;3.00;3.00;;;;;-144.76;100.00;60493.00;5049395;28;45250;-91
2021/11/03 05:17:46;;;;;;;;;3.00;3.00;;;;;-144.76;100.00;60493.00;5046484;28;45332;-92
2021/11/03 05:20:15;;;;;;;;;4.25;4.25;;;;;-144.76;100.00;60493.00;5051837;28;45874;-91
2021/11/03 05:22:40;;;;;;;;;4.75;4.75;;;;;-144.76;100.00;60493.00;5028810;28;45475;-91
2021/11/03 05:25:06;;;;;;;;;4.00;3.75;;;;;-144.76;100.00;60493.00;5044841;28;46959;-91
2021/11/03 05:27:32;;;;;;;;;4.50;4.00;;;;;-144.76;100.00;60493.00;5049218;28;45551;-89
2021/11/03 05:29:58;;;;;;;;;7.00;7.00;;;;;-144.76;100.00;60493.00;5046980;28;45605;-89
2021/11/03 05:32:23;;;;;;;;;8.00;6.25;;;;;-144.76;100.00;60493.00;5050541;28;45214;-91
2021/11/03 05:34:49;;;;;;;;;8.50;8.50;;;;;-144.76;100.00;60493.00;5045400;28;46457;-92
2021/11/03 05:37:17;;;;;;;;;7.75;7.25;;;;;-144.76;100.00;60493.00;5045996;28;45872;-92
2021/11/03 05:39:43;;;;;;;;;12.75;8.75;;;;;-144.76;100.00;60493.00;5049153;28;45690;-91
2021/11/03 05:42:09;;;;;;;;;11.50;9.00;;;;;-144.76;100.00;60493.00;5045585;28;45540;-88
2021/11/03 05:44:35;;;;;;;;;9.50;9.50;;;;;-144.76;100.00;60493.00;5044502;28;47095;-90
2021/11/03 05:47:00;;;;;;;;;9.00;8.25;;;;;-144.76;100.00;60493.00;5046060;28;45787;-90
2021/11/03 05:49:30;;;;;;;;;15.25;13.25;;;;;-144.76;100.00;60493.00;5027281;28;45507;-93
2021/11/03 05:51:59;;;;;;;;;12.00;10.75;;;;;-144.76;100.00;60493.00;5050340;28;45649;-92
2021/11/03 05:54:26;;;;;;;;;11.50;10.50;;;;;-144.76;100.00;60493.00;5045409;28;47562;-93
2021/11/03 05:56:53;;;;;;;;;11.00;11.00;;;;;-144.76;100.00;60493.00;5047259;28;45522;-91
2021/11/03 05:59:18;;;;;;;;;10.50;9.75;;;;;-144.76;100.00;60493.00;5054356;28;45419;-90
2021/11/03 06:01:44;;;;;;;;;14.25;14.00;;;;;-144.76;100.00;60493.00;5055364;28;45604;-91
2021/11/03 06:04:10;;;;;;;;;15.00;13.00;;;;;-144.76;100.00;60493.00;5056538;28;46252;-90
2021/11/03 06:06:37;;;;;;;;;14.75;12.00;;;;;-144.76;100.00;60493.00;5055629;28;45932;-91
2021/11/03 06:09:04;;;;;;;;;15.00;12.00;;;;;-144.76;100.00;60493.00;5059544;28;45431;-91
2021/11/03 06:11:31;;;;;;;;;15.50;14.75;;;;;-144.76;100.00;60493.00;5058705;28;45592;-88
2021/11/03 06:13:57;;;;;;;;;16.00;14.75;;;;;-144.76;100.00;60493.00;5056847;28;46104;-93
2021/11/03 06:16:23;;;;;;;;;16.25;15.50;;;;;-144.76;100.00;60493.00;5056494;28;45361;-93
2021/11/03 06:18:49;;;;;;;;;14.00;13.50;;;;;-144.76;100.00;60493.00;5056540;28;45573;-92
2021/11/03 06:21:14;;;;;;;;;19.50;18.25;;;;;-144.76;100.00;60493.00;5057761;28;45544;-90
2021/11/03 06:23:40;;;;;;;;;14.75;14.50;;;;;-144.76;100.00;60493.00;5038867;28;48062;-90
2021/11/03 06:26:06;;;;;;;;;18.50;16.25;;;;;-144.76;100.00;60493.00;5056150;28;45526;-86
2021/11/03 06:28:31;;;;;;;;;15.25;15.00;;;;;-144.76;100.00;60493.00;5056482;28;45515;-86
2021/11/03 06:30:57;;;;;;;;;18.75;16.75;;;;;-144.76;100.00;60493.00;5052261;28;45413;-84
2021/11/03 06:33:23;;;;;;;;;16.50;16.25;;;;;-144.76;100.00;60493.00;5052142;28;45672;-84
2021/11/03 06:35:50;;;;;;;;;15.75;15.75;;;;;-144.76;100.00;60493.00;5055080;28;45439;-86
2021/11/03 06:38:17;;;;;;;;;16.00;14.00;;;;;-144.76;100.00;60493.00;5055318;28;45574;-87
2021/11/03 06:40:43;;;;;;;;;13.50;13.50;;;;;-144.76;100.00;60493.00;5054719;28;45559;-86
2021/11/03 06:43:09;;;;;;;;;14.50;14.25;;;;;-144.76;100.00;60493.00;5056594;28;45516;-88
2021/11/03 06:45:35;;;;;;;;;23.75;17.75;;;;;-144.76;100.00;60493.00;5045757;28;45507;-91
2021/11/03 06:48:01;;;;;;;;;17.50;17.00;;;;;-144.76;100.00;60493.00;5018833;28;45559;-90
2021/11/03 06:50:30;;;;;;;;;19.75;19.00;;;;;-144.76;100.00;60493.00;5026418;28;45655;-87
2021/11/03 06:52:59;;;;;;;;;26.25;22.75;;;;;-144.76;100.00;60493.00;5054994;28;45698;-89
2021/11/03 06:55:25;;;;;;;;;21.25;18.00;;;;;-144.76;100.00;60493.00;5054941;28;45592;-87
2021/11/03 06:57:51;;;;;;;;;23.75;21.75;;;;;-144.76;100.00;60493.00;5038464;28;45380;-87
2021/11/03 07:00:21;;;;;;;;;26.50;22.50;;;;;-144.76;100.00;60493.00;5055226;28;45414;-93
2021/11/03 07:02:47;;;;;;;;;23.00;19.75;;;;;-144.76;100.00;60493.00;5053503;28;48176;-86
2021/11/03 07:05:12;;;;;;;;;24.50;24.25;;;;;-144.76;100.00;60493.00;5055353;28;45739;-86
2021/11/03 07:07:38;;;;;;;;;22.25;20.75;;;;;-144.76;100.00;60493.00;5055897;28;45809;-88
2021/11/03 07:10:06;;;;;;;;;28.50;24.75;;;;;-144.76;100.00;60493.00;5054647;28;45497;-86
2021/11/03 07:12:31;;;;;;;;;24.00;23.00;;;;;-144.76;100.00;60493.00;5054415;28;46270;-86
2021/11/03 07:14:56;;;;;;;;;28.50;26.00;;;;;-144.76;100.00;60493.00;5053013;28;45770;-85
2021/11/03 07:17:22;;;;;;;;;29.75;27.25;;;;;-144.76;100.00;60493.00;5035773;28;45452;-88
2021/11/03 07:19:47;;;;;;;;;26.50;25.50;;;;;-144.76;100.00;60493.00;5043255;28;45549;-90
2021/11/03 07:22:12;;;;;;;;;25.00;24.00;;;;;-144.76;100.00;60493.00;5028008;28;46878;-86
2021/11/03 07:24:38;;;;;;;;;23.00;21.75;;;;;-144.76;100.00;60493.00;5043943;28;45455;-89
2021/11/03 07:27:04;;;;;;;;;26.50;24.50;;;;;-144.76;100.00;60493.00;5046108;28;45510;-85
2021/11/03 07:29:29;;;;;;;;;23.25;22.00;;;;;-144.76;100.00;60493.00;5025194;28;45521;-86
2021/11/03 07:31:55;;;;;;;;;29.25;28.25;;;;;-144.76;100.00;60493.00;5026089;28;47190;-88
2021/11/03 07:34:20;;;;;;;;;24.50;22.25;;;;;-144.76;100.00;60493.00;5042858;28;45722;-89
2021/11/03 07:36:46;;;;;;;;;22.50;21.00;;;;;-144.76;100.00;60493.00;5042150;28;46023;-85
2021/11/03 07:39:12;;;;;;;;;25.25;24.25;;;;;-144.76;100.00;60493.00;5028342;28;45524;-84
2021/11/03 07:41:38;;;;;;;;;26.25;23.50;;;;;-144.76;100.00;60493.00;5041745;28;48109;-88
2021/11/03 07:44:05;;;;;;;;;21.25;20.75;;;;;-144.76;100.00;60493.00;5044269;28;45445;-85
2021/11/03 07:46:31;;;;;;;;;46.75;40.00;;;;;-144.76;100.00;60493.00;5027227;28;45577;-88
2021/11/03 07:48:56;;;;;;;;;27.50;24.75;;;;;-144.76;100.00;60493.00;5041991;28;45461;-86
2021/11/03 07:51:23;;;;;;;;;25.75;24.00;;;;;-144.76;100.00;60493.00;5047871;28;46346;-87
2021/11/03 07:53:50;;;;;;;;;30.25;25.75;;;;;-144.76;100.00;60493.00;5044651;28;45609;-86
2021/11/03 07:56:20;;;;;;;;;24.00;23.00;;;;;-144.76;100.00;60493.00;5043988;28;45479;-91
2021/11/03 07:58:48;;;;;;;;;25.25;23.25;;;;;-144.76;100.00;60493.00;5043713;28;45647;-86
2021/11/03 08:01:13;;;;;;;;;46.75;41.25;;;;;-144.76;100.00;60493.00;5044155;28;46256;-91
2021/11/03 08:03:39;;;;;;;;;23.75;22.50;;;;;-144.76;100.00;60493.00;5025468;28;45529;-92
2021/11/03 08:06:06;;;;;;;;;23.25;20.25;;;;;-144.76;100.00;60493.00;5042858;28;45410;-89
2021/11/03 08:08:33;;;;;;;;;75.50;59.50;;;;;-144.76;100.00;60493.00;5025289;28;45591;-89
2021/11/03 08:11:02;;;;;;;;;26.00;24.25;;;;;-144.76;100.00;60493.00;5048189;28;46830;-87
2021/11/03 08:13:31;;;;;;;;;23.50;21.25;;;;;-144.76;100.00;60493.00;5044474;28;45423;-91
2021/11/03 08:15:59;;;;;;;;;21.75;21.25;;;;;-144.76;100.00;60493.00;5038911;28;45395;-93
2021/11/03 08:18:28;;;;;;;;;20.00;20.00;;;;;-144.76;100.00;60493.00;5051207;28;45398;-93
2021/11/03 08:20:54;;;;;;;;;30.50;27.50;;;;;-144.76;100.00;60493.00;5055945;28;45532;-90
2021/11/03 08:23:19;;;;;;;;;19.00;19.00;;;;;-144.76;100.00;60493.00;5056282;28;46065;-93
2021/11/03 08:25:45;;;;;;;;;23.50;23.00;;;;;-144.76;100.00;60493.00;5056431;28;45339;-86
2021/11/03 08:28:12;;;;;;;;;19.25;18.50;;;;;-144.76;100.00;60493.00;5038919;28;45756;-89
2021/11/03 08:30:43;;;;;;;;;21.50;19.75;;;;;-144.76;100.00;60493.00;5037672;28;48418;-85
2021/11/03 08:33:13;;;;;;;;;23.00;22.25;;;;;-144.76;100.00;60493.00;5054933;28;45987;-89
2021/11/03 08:35:41;;;;;;;;;22.00;21.75;;;;;-144.76;100.00;60493.00;5036978;28;45360;-91
2021/11/03 08:38:10;;;;;;;;;18.00;17.00;;;;;-144.76;100.00;60493.00;5037501;28;45403;-88
2021/11/03 08:40:36;;;;;;;;;18.50;18.00;;;;;-144.76;100.00;60493.00;5053730;28;47429;-86
2021/11/03 08:43:04;;;;;;;;;16.75;16.00;;;;;-144.76;100.00;60493.00;5036991;28;45455;-88
2021/11/03 08:45:30;;;;;;;;;19.25;17.75;;;;;-144.76;100.00;60493.00;5055656;28;45413;-90
2021/11/03 08:47:55;;;;;;;;;18.00;17.25;;;;;-144.76;100.00;60493.00;5050049;28;45777;-87
2021/11/03 08:50:26;;;;;;;;;19.00;17.00;;;;;-144.76;100.00;60493.00;5034743;28;46278;-87
2021/11/03 08:52:52;;;;;;;;;17.75;16.75;;;;;-144.76;100.00;60493.00;5017189;28;46188;-89
2021/11/03 08:55:19;;;;;;;;;14.75;14.75;;;;;-144.76;100.00;60493.00;5035328;28;45294;-90
2021/11/03 08:57:44;;;;;;;;;19.00;17.50;;;;;-144.76;100.00;60493.00;5037556;28;45468;-88
2021/11/03 09:00:23;;;;;;;;;17.00;17.00;;;;;-144.76;100.00;60493.00;5021398;28;48187;-88
2021/11/03 09:02:55;;;;;;;;;19.00;17.75;;;;;-144.76;100.00;60493.00;5014176;28;45316;-87
2021/11/03 09:05:22;;;;;;;;;20.50;19.75;;;;;-144.76;100.00;60493.00;5015526;28;45408;-87
2021/11/03 09:07:47;;;;;;;;;19.00;18.50;;;;;-144.76;100.00;60493.00;5033650;28;45428;-87
2021/11/03 09:10:16;;;;;;;;;21.00;19.50;;;;;-144.76;100.00;60493.00;5015348;28;46919;-86
2021/11/03 09:12:42;;;;;;;;;44.00;37.25;;;;;-144.76;100.00;60493.00;5015822;28;45779;-89
2021/11/03 09:15:08;;;;;;;;;20.75;19.50;;;;;-144.76;100.00;60493.00;5017201;28;45279;-86
2021/11/03 09:17:34;;;;;;;;;18.75;18.00;;;;;-144.76;100.00;60493.00;5015643;28;45325;-87
2021/11/03 09:20:00;;;;;;;;;20.25;19.00;;;;;-144.76;100.00;60493.00;5015569;28;47129;-86
2021/11/03 09:22:25;;;;;;;;;17.00;16.25;;;;;-144.76;100.00;60493.00;5017746;28;45560;-87
2021/11/03 09:24:51;;;;;;;;;22.75;22.25;;;;;-144.76;100.00;60493.00;5034218;28;45355;-85
2021/11/03 09:27:17;;;;;;;;;22.25;19.75;;;;;-144.76;100.00;60493.00;5015573;28;45641;-89
2021/11/03 09:29:50;;;;;;;;;23.75;19.25;;;;;-144.76;100.00;60493.00;5033719;28;46225;-87
2021/11/03 09:32:19;;;;;;;;;19.00;17.00;;;;;-144.76;100.00;60493.00;5033357;28;45321;-86
2021/11/03 09:34:46;;;;;;;;;16.00;16.00;;;;;-144.76;100.00;60493.00;5015206;28;45383;-90
2021/11/03 09:37:13;;;;;;;;;20.50;18.25;;;;;-144.76;100.00;60493.00;5015445;28;45506;-88
2021/11/03 09:39:39;;;;;;;;;19.75;18.25;;;;;-144.76;100.00;60493.00;5015197;28;47133;-88
2021/11/03 09:42:05;;;;;;;;;22.50;20.75;;;;;-144.76;100.00;60493.00;5034400;28;45386;-87
2021/11/03 09:44:36;;;;;;;;;21.75;20.00;;;;;-144.76;100.00;60493.00;5019464;28;45519;-89
2021/11/03 09:47:20;;;;;;;;;17.50;15.75;;;;;-144.76;100.00;60493.00;5022192;28;45450;-87
2021/11/03 09:49:58;;;;;;;;;17.75;15.75;;;;;-144.76;100.00;60493.00;5035836;28;46094;-89
2021/11/03 09:52:37;;;;;;;;;21.25;17.50;;;;;-144.76;100.00;60493.00;5018239;28;45788;-87
2021/11/03 09:55:14;;;;;;;;;20.75;17.50;;;;;-144.76;100.00;60493.00;5018479;28;45466;-86
2021/11/03 09:57:48;;;;;;;;;35.25;33.00;;;;;-144.76;100.00;60493.00;5036076;28;45574;-87
2021/11/03 10:00:29;;;;;;;;;18.00;17.25;;;;;-144.76;100.00;60493.00;5018505;28;46854;-87
2021/11/03 10:03:13;;;;;;;;;19.50;17.50;;;;;-144.76;100.00;60493.00;5017777;28;45983;-86
2021/11/03 10:05:48;;;;;;;;;16.00;14.50;;;;;-144.76;100.00;60493.00;5018420;28;45219;-88
2021/11/03 10:08:16;;;;;;;;;18.00;17.00;;;;;-144.76;100.00;60493.00;5036770;28;45461;-86
2021/11/03 10:10:52;;;;;;;;;15.00;13.50;;;;;-144.76;100.00;60493.00;5018209;28;47291;-88
2021/11/03 10:13:30;;;;;;;;;20.50;18.00;;;;;-144.76;100.00;60493.00;5018637;28;45998;-86
2021/11/03 10:16:28;;;;;;;;;13.75;13.00;;;;;-144.76;100.00;60493.00;5035720;28;45569;-86
2021/11/03 10:18:54;;;;;;;;;16.50;16.25;;;;;-144.76;100.00;60493.00;5017844;28;45732;-85
2021/11/03 10:21:31;;;;;;;;;17.00;16.00;;;;;-144.76;100.00;60493.00;5035158;28;45539;-85
2021/11/03 10:24:09;;;;;;;;;17.00;16.00;;;;;-144.76;100.00;60493.00;5017780;28;45583;-86
2021/11/03 10:26:50;;;;;;;;;18.50;16.50;;;;;-144.76;100.00;60493.00;5036213;28;44981;-87
2021/11/03 10:29:33;;;;;;;;;20.00;18.50;;;;;-144.76;100.00;60493.00;5035540;28;45509;-84
2021/11/03 10:32:07;;;;;;;;;15.75;15.75;;;;;-144.76;100.00;60493.00;5017089;28;48066;-85
2021/11/03 10:34:33;;;;;;;;;17.00;17.00;;;;;-144.76;100.00;60493.00;5034518;28;45313;-91
2021/11/03 10:37:16;;;;;;;;;16.33;16.33;;;;;-144.76;100.00;60493.00;5017512;28;45441;-89
2021/11/03 10:40:00;;;;;;;;;19.75;18.75;;;;;-144.76;100.00;60493.00;5035024;28;45619;-88
2021/11/03 10:42:41;;;;;;;;;16.00;16.00;;;;;-144.76;100.00;60493.00;5017594;28;46784;-88
2021/11/03 10:45:10;;;;;;;;;32.50;32.25;;;;;-144.76;100.00;60493.00;5017255;28;45332;-88
2021/11/03 10:47:37;;;;;;;;;13.75;12.50;;;;;-144.76;100.00;60493.00;5034984;28;45542;-86
2021/11/03 10:50:22;;;;;;;;;14.50;13.25;;;;;-144.76;100.00;60493.00;5035063;28;45373;-86
2021/11/03 10:53:00;;;;;;;;;14.25;14.25;;;;;-144.76;100.00;60493.00;5016784;28;45471;-90
2021/11/03 10:55:47;;;;;;;;;17.00;14.75;;;;;-144.76;100.00;60493.00;5016894;28;45490;-85
2021/11/03 10:58:13;;;;;;;;;14.25;13.00;;;;;-144.76;100.00;60493.00;5017096;28;45497;-86
2021/11/03 11:00:44;;;;;;;;;18.00;16.67;;;;;-144.76;100.00;60493.00;5034878;28;45273;-88
2021/11/03 11:03:19;;;;;;;;;17.00;14.25;;;;;-144.76;100.00;60493.00;5016687;28;47400;-87